createdAt,value
2024-02-28T00:02:21.288Z,10.27
2024-02-28T00:07:24.205Z,11.23
2024-02-28T00:12:27.365Z,10.13
2024-02-28T00:17:30.692Z,11.02
2024-02-28T00:22:33.803Z,9.73
2024-02-28T00:27:37.413Z,10.00
2024-02-28T00:32:40.464Z,10.32
2024-02-28T00:37:43.553Z,10.07
2024-02-28T00:42:47.030Z,9.48
2024-02-28T00:47:50.012Z,10.43
2024-02-28T00:52:52.986Z,9.73
2024-02-28T00:57:55.966Z,8.90
2024-02-28T01:02:59.016Z,10.13
2024-02-28T01:08:01.963Z,8.98
2024-02-28T01:13:05.138Z,10.07
2024-02-28T01:18:08.390Z,9.68
2024-02-28T01:23:11.940Z,9.93
2024-02-28T01:28:14.947Z,9.10
2024-02-28T01:33:18.087Z,10.10
2024-02-28T01:38:20.969Z,9.43
2024-02-28T01:43:23.929Z,9.80
2024-02-28T01:48:27.046Z,10.23
2024-02-28T01:53:29.962Z,9.03
2024-02-28T01:58:33.289Z,9.80
2024-02-28T02:03:36.311Z,9.88
2024-02-28T02:08:39.895Z,9.60
2024-02-28T02:13:50.385Z,11.48
2024-02-28T02:18:53.962Z,12.53
2024-02-28T02:23:56.947Z,12.20
2024-02-28T02:28:59.868Z,12.32
2024-02-28T02:34:02.931Z,13.48
2024-02-28T02:39:05.915Z,14.40
2024-02-28T02:44:09.813Z,16.77
2024-02-28T02:49:12.750Z,15.60
2024-02-28T02:54:15.660Z,16.75
2024-02-28T02:59:19.135Z,17.10
2024-02-28T03:04:22.156Z,16.00
2024-02-28T03:09:26.141Z,15.90
2024-02-28T03:14:29.165Z,16.05
2024-02-28T03:19:32.393Z,13.40
2024-02-28T03:24:38.687Z,14.50
2024-02-28T03:29:41.776Z,13.32
2024-02-28T03:34:44.569Z,13.20
2024-02-28T03:39:47.486Z,14.05
2024-02-28T03:44:50.585Z,12.85
2024-02-28T03:49:53.753Z,12.57
2024-02-28T03:54:57.158Z,12.75
2024-02-28T04:00:00.152Z,13.00
2024-02-28T04:05:03.417Z,14.23
2024-02-28T04:10:07.171Z,15.18
2024-02-28T04:15:12.008Z,14.85
2024-02-28T04:20:16.988Z,14.95
2024-02-28T04:25:20.534Z,14.27
2024-02-28T04:30:23.567Z,13.77
2024-02-28T04:35:26.551Z,14.25
2024-02-28T04:40:29.646Z,13.50
2024-02-28T04:45:32.746Z,14.52
2024-02-28T04:50:35.728Z,13.50
2024-02-28T04:55:38.760Z,14.00
2024-02-28T05:00:41.908Z,14.50
2024-02-28T05:05:44.955Z,14.02
2024-02-28T05:10:48.802Z,12.95
2024-02-28T05:15:51.996Z,13.43
2024-02-28T05:20:54.879Z,13.10
2024-02-28T05:25:58.768Z,13.07
2024-02-28T05:31:02.008Z,14.52
2024-02-28T05:36:06.019Z,14.35
2024-02-28T05:41:09.169Z,13.73
2024-02-28T05:46:12.162Z,13.68
2024-02-28T05:51:15.503Z,13.82
2024-02-28T05:56:21.393Z,12.30
2024-02-28T06:01:25.119Z,13.45
2024-02-28T06:06:28.583Z,13.13
2024-02-28T06:11:32.087Z,14.30
2024-02-28T06:16:35.096Z,15.23
2024-02-28T06:21:38.132Z,14.15
2024-02-28T06:26:43.191Z,16.08
2024-02-28T06:31:46.382Z,15.27
2024-02-28T06:36:49.497Z,15.02
2024-02-28T06:41:53.047Z,14.80
2024-02-28T06:46:56.160Z,14.70
2024-02-28T06:52:02.647Z,15.00
2024-02-28T06:57:06.848Z,14.43
2024-02-28T07:02:10.417Z,13.57
2024-02-28T07:07:13.401Z,13.57
2024-02-28T07:12:16.685Z,14.80
2024-02-28T07:17:19.699Z,16.35
2024-02-28T07:22:22.621Z,15.33
2024-02-28T07:27:25.762Z,16.70
2024-02-28T07:32:28.902Z,15.75
2024-02-28T07:37:32.192Z,16.10
2024-02-28T07:42:36.301Z,15.93
2024-02-28T07:47:40.069Z,13.93
2024-02-28T07:52:43.470Z,14.48
2024-02-28T07:57:46.427Z,14.07
2024-02-28T08:02:49.476Z,14.68
2024-02-28T08:07:53.423Z,15.05
2024-02-28T08:12:56.655Z,17.53
2024-02-28T08:18:00.414Z,19.17
2024-02-28T08:23:04.909Z,17.55
2024-02-28T08:28:08.615Z,18.63
2024-02-28T08:33:12.178Z,17.17
2024-02-28T08:38:15.310Z,18.33
2024-02-28T08:43:18.750Z,17.90
2024-02-28T08:48:21.833Z,18.83
2024-02-28T08:53:24.998Z,18.35
2024-02-28T08:58:28.380Z,19.02
2024-02-28T09:03:31.464Z,18.07
2024-02-28T09:08:34.663Z,19.33
2024-02-28T09:13:37.837Z,17.55
2024-02-28T09:18:40.979Z,16.80
2024-02-28T09:23:44.208Z,16.55
2024-02-28T09:28:47.417Z,16.23
2024-02-28T09:33:50.604Z,15.80
2024-02-28T09:38:53.546Z,16.05
2024-02-28T09:43:57.330Z,15.82
2024-02-28T09:49:01.248Z,16.70
2024-02-28T09:54:05.413Z,16.13
2024-02-28T09:59:09.579Z,16.67
2024-02-28T10:04:14.296Z,17.13
2024-02-28T10:09:17.880Z,14.82
2024-02-28T10:14:21.076Z,15.98
2024-02-28T10:19:24.134Z,18.80
2024-02-28T10:24:27.194Z,19.38
2024-02-28T10:29:30.181Z,18.92
2024-02-28T10:34:34.138Z,18.52
2024-02-28T10:39:37.581Z,18.52
2024-02-28T10:44:40.985Z,18.90
2024-02-28T10:49:45.425Z,16.90
2024-02-28T10:54:50.245Z,16.95
2024-02-28T10:59:53.613Z,15.40
2024-02-28T11:04:57.972Z,15.15
2024-02-28T11:10:06.522Z,17.17
2024-02-28T11:15:17.636Z,17.23
2024-02-28T11:20:20.825Z,15.90
2024-02-28T11:25:24.056Z,13.40
2024-02-28T11:30:27.573Z,13.48
2024-02-28T11:35:30.568Z,13.07
2024-02-28T11:40:33.804Z,16.30
2024-02-28T11:45:42.861Z,16.02
2024-02-28T11:50:45.981Z,15.90
2024-02-28T11:55:50.256Z,15.45
2024-02-28T12:00:54.014Z,13.57
2024-02-28T12:05:58.246Z,13.90
2024-02-28T12:11:08.811Z,15.00
2024-02-28T12:16:11.907Z,15.02
2024-02-28T12:21:15.030Z,15.13
2024-02-28T12:26:21.196Z,16.37
2024-02-28T12:31:24.354Z,15.40
2024-02-28T12:36:28.288Z,14.65
2024-02-28T12:41:31.535Z,13.50
2024-02-28T12:46:37.592Z,13.85
2024-02-28T12:51:45.592Z,14.43
2024-02-28T12:56:50.848Z,14.00
2024-02-28T13:01:53.990Z,14.95
2024-02-28T13:06:56.981Z,15.82
2024-02-28T13:12:00.191Z,13.85
2024-02-28T13:17:05.390Z,13.47
2024-02-28T13:22:08.566Z,13.13
2024-02-28T13:27:11.693Z,11.27
2024-02-28T13:32:14.768Z,11.98
2024-02-28T13:37:18.090Z,10.40
2024-02-28T13:42:21.712Z,11.10
2024-02-28T13:47:25.155Z,10.68
2024-02-28T13:52:28.267Z,11.02
2024-02-28T13:57:31.356Z,12.57
2024-02-28T14:02:34.626Z,14.50
2024-02-28T14:07:38.608Z,15.13
2024-02-28T14:12:41.947Z,15.07
2024-02-28T14:17:45.628Z,15.15
2024-02-28T14:22:48.807Z,13.68
2024-02-28T14:27:52.083Z,16.83
2024-02-28T14:32:55.269Z,16.70
2024-02-28T14:37:58.363Z,16.92
2024-02-28T14:43:01.821Z,19.75
2024-02-28T14:48:05.463Z,18.17
2024-02-28T14:53:08.792Z,19.42
2024-02-28T14:58:12.073Z,21.67
2024-02-28T15:03:15.336Z,21.20
2024-02-28T15:08:18.340Z,20.90
2024-02-28T15:13:21.339Z,20.23
2024-02-28T15:18:24.395Z,19.88
2024-02-28T15:23:30.654Z,20.90
2024-02-28T15:28:35.099Z,22.15
2024-02-28T15:33:38.289Z,22.10
2024-02-28T15:38:41.288Z,20.98
2024-02-28T15:43:44.276Z,23.05
2024-02-28T15:48:47.669Z,22.67
2024-02-28T15:53:51.147Z,23.50
2024-02-28T15:58:54.234Z,23.35
2024-02-28T16:03:57.347Z,24.98
2024-02-28T16:09:00.335Z,23.23
2024-02-28T16:14:03.461Z,23.93
2024-02-28T16:19:15.110Z,23.58
2024-02-28T16:24:22.360Z,25.83
2024-02-28T16:29:25.824Z,28.58
2024-02-28T16:34:30.104Z,29.83
2024-02-28T16:39:34.427Z,29.07
2024-02-28T16:44:37.637Z,31.88
2024-02-28T16:49:40.740Z,33.47
2024-02-28T16:54:44.259Z,31.63
2024-02-28T16:59:47.623Z,32.05
2024-02-28T17:04:50.827Z,34.97
2024-02-28T17:09:54.148Z,33.80
2024-02-28T17:14:57.657Z,30.42
2024-02-28T17:20:01.559Z,33.83
2024-02-28T17:25:04.765Z,33.15
2024-02-28T17:30:09.402Z,32.57
2024-02-28T17:35:12.479Z,33.90
2024-02-28T17:40:15.668Z,29.67
2024-02-28T17:45:19.331Z,32.38
2024-02-28T17:50:26.003Z,28.75
2024-02-28T17:55:29.592Z,26.00
2024-02-28T18:00:33.007Z,28.02
2024-02-28T18:05:36.193Z,27.38
2024-02-28T18:10:39.213Z,28.77
2024-02-28T18:15:42.323Z,27.45
2024-02-28T18:20:45.484Z,26.60
2024-02-28T18:25:48.904Z,29.25
2024-02-28T18:30:52.384Z,29.38
2024-02-28T18:35:55.449Z,28.10
2024-02-28T18:40:59.257Z,31.33
2024-02-28T18:46:03.387Z,24.90
2024-02-28T18:51:06.487Z,28.42
2024-02-28T18:56:09.958Z,25.92
2024-02-28T19:01:16.503Z,29.52
2024-02-28T19:06:22.358Z,29.33
2024-02-28T19:11:25.700Z,27.60
2024-02-28T19:16:29.040Z,30.20
2024-02-28T19:21:32.659Z,26.63
2024-02-28T19:26:38.214Z,28.50
2024-02-28T19:31:41.411Z,28.92
2024-02-28T19:36:44.567Z,28.63
2024-02-28T19:41:47.497Z,27.25
2024-02-28T19:46:50.568Z,27.02
2024-02-28T19:51:54.236Z,27.98
2024-02-28T19:56:57.638Z,29.45
2024-02-28T20:02:01.851Z,26.40
2024-02-28T20:07:05.297Z,28.05
2024-02-28T20:12:08.496Z,27.40
2024-02-28T20:17:14.677Z,26.08
2024-02-28T20:22:17.746Z,29.33
2024-02-28T20:27:20.693Z,24.23
2024-02-28T20:32:23.826Z,25.10
2024-02-28T20:37:27.726Z,25.83
2024-02-28T20:42:30.776Z,26.80
2024-02-28T20:47:34.011Z,27.20
2024-02-28T20:52:37.584Z,24.73
2024-02-28T20:57:41.574Z,26.45
2024-02-28T21:02:44.747Z,25.17
2024-02-28T21:07:53.071Z,24.27
2024-02-28T21:12:57.209Z,23.60
2024-02-28T21:18:00.827Z,25.77
2024-02-28T21:23:04.066Z,22.73
2024-02-28T21:28:07.169Z,24.85
2024-02-28T21:33:10.228Z,25.77
2024-02-28T21:38:13.418Z,25.17
2024-02-28T21:43:16.448Z,25.80
2024-02-28T21:48:19.569Z,25.63
2024-02-28T21:53:25.118Z,26.98
2024-02-28T21:58:28.451Z,24.48
2024-02-28T22:03:31.556Z,26.50
2024-02-28T22:08:34.632Z,27.13
2024-02-28T22:13:37.693Z,25.40
2024-02-28T22:18:41.069Z,26.70
2024-02-28T22:23:44.285Z,24.73
2024-02-28T22:28:47.286Z,25.85
2024-02-28T22:33:50.377Z,24.80
2024-02-28T22:38:54.076Z,20.25
2024-02-28T22:43:57.164Z,19.40
2024-02-28T22:49:04.805Z,21.00
2024-02-28T22:54:14.763Z,23.17
2024-02-28T22:59:19.152Z,23.40
2024-02-28T23:04:23.271Z,23.75
2024-02-28T23:09:26.242Z,23.17
2024-02-28T23:14:29.315Z,20.90
2024-02-28T23:19:36.159Z,24.23
2024-02-28T23:24:39.203Z,23.87
2024-02-28T23:29:42.129Z,24.80
2024-02-28T23:34:45.149Z,24.30
2024-02-28T23:39:48.059Z,23.05
2024-02-28T23:44:51.861Z,23.55
2024-02-28T23:49:55.537Z,22.77
2024-02-28T23:54:59.306Z,23.63
